sensor_id;sensor_type;location;lat;lon;timestamp;pressure;altitude;pressure_sealevel;temperature;humidity
41218;BME280;26950;50.960;7.138;2023-07-13T00:00:43;100535.44;;;24.43;36.75
41218;BME280;26950;50.960;7.138;2023-07-13T00:03:09;100537.44;;;23.73;38.03
41218;BME280;26950;50.960;7.138;2023-07-13T00:05:38;100543.31;;;23.53;37.99
41218;BME280;26950;50.960;7.138;2023-07-13T00:08:05;100544.09;;;23.91;37.43
41218;BME280;26950;50.960;7.138;2023-07-13T00:10:33;100540.22;;;24.34;36.68
41218;BME280;26950;50.960;7.138;2023-07-13T00:13:00;100538.03;;;23.84;37.75
41218;BME280;26950;50.960;7.138;2023-07-13T00:15:27;100548.00;;;23.45;38.87
41218;BME280;26950;50.960;7.138;2023-07-13T00:17:56;100537.63;;;23.67;38.14
41218;BME280;26950;50.960;7.138;2023-07-13T00:20:24;100549.16;;;23.69;38.23
41218;BME280;26950;50.960;7.138;2023-07-13T00:22:51;100541.81;;;23.77;38.17
41218;BME280;26950;50.960;7.138;2023-07-13T00:25:19;100534.47;;;24.15;37.51
41218;BME280;26950;50.960;7.138;2023-07-13T00:27:47;100537.66;;;23.65;38.14
41218;BME280;26950;50.960;7.138;2023-07-13T00:30:15;100539.16;;;23.76;38.25
41218;BME280;26950;50.960;7.138;2023-07-13T00:32:41;100544.94;;;23.93;37.98
41218;BME280;26950;50.960;7.138;2023-07-13T00:35:09;100541.16;;;24.00;37.35
41218;BME280;26950;50.960;7.138;2023-07-13T00:37:36;100540.97;;;24.06;37.68
41218;BME280;26950;50.960;7.138;2023-07-13T00:40:03;100532.56;;;24.18;37.31
41218;BME280;26950;50.960;7.138;2023-07-13T00:42:31;100532.34;;;24.26;37.00
41218;BME280;26950;50.960;7.138;2023-07-13T00:45:03;100526.63;;;24.09;37.95
41218;BME280;26950;50.960;7.138;2023-07-13T00:47:30;100529.28;;;24.09;38.11
41218;BME280;26950;50.960;7.138;2023-07-13T00:49:56;100526.44;;;23.84;38.59
41218;BME280;26950;50.960;7.138;2023-07-13T00:52:24;100536.06;;;23.23;39.46
41218;BME280;26950;50.960;7.138;2023-07-13T00:54:51;100534.53;;;23.14;39.84
41218;BME280;26950;50.960;7.138;2023-07-13T00:57:19;100527.91;;;23.63;39.14
41218;BME280;26950;50.960;7.138;2023-07-13T00:59:49;100522.69;;;24.20;37.76
41218;BME280;26950;50.960;7.138;2023-07-13T01:02:16;100524.00;;;24.06;37.88
41218;BME280;26950;50.960;7.138;2023-07-13T01:04:43;100527.09;;;24.23;37.78
41218;BME280;26950;50.960;7.138;2023-07-13T01:07:10;100525.00;;;24.34;38.02
41218;BME280;26950;50.960;7.138;2023-07-13T01:09:40;100527.88;;;24.27;38.07
41218;BME280;26950;50.960;7.138;2023-07-13T01:12:07;100522.66;;;24.22;38.36
41218;BME280;26950;50.960;7.138;2023-07-13T01:14:34;100523.69;;;24.16;38.31
41218;BME280;26950;50.960;7.138;2023-07-13T01:17:01;100535.47;;;23.80;38.66
41218;BME280;26950;50.960;7.138;2023-07-13T01:19:33;100531.94;;;23.45;39.39
41218;BME280;26950;50.960;7.138;2023-07-13T01:22:04;100539.81;;;23.51;39.31
41218;BME280;26950;50.960;7.138;2023-07-13T01:24:34;100540.03;;;23.42;39.74
41218;BME280;26950;50.960;7.138;2023-07-13T01:27:00;100538.44;;;23.35;40.32
41218;BME280;26950;50.960;7.138;2023-07-13T01:29:27;100539.94;;;23.11;40.62
41218;BME280;26950;50.960;7.138;2023-07-13T01:31:53;100538.44;;;23.01;40.52
41218;BME280;26950;50.960;7.138;2023-07-13T01:34:20;100532.66;;;23.50;39.62
41218;BME280;26950;50.960;7.138;2023-07-13T01:36:46;100537.56;;;23.34;39.65
41218;BME280;26950;50.960;7.138;2023-07-13T01:39:14;100534.56;;;22.74;41.02
41218;BME280;26950;50.960;7.138;2023-07-13T01:41:42;100530.38;;;23.71;39.09
41218;BME280;26950;50.960;7.138;2023-07-13T01:44:08;100543.47;;;22.76;40.74
41218;BME280;26950;50.960;7.138;2023-07-13T01:46:35;100532.00;;;23.06;40.44
41218;BME280;26950;50.960;7.138;2023-07-13T01:49:01;100546.56;;;22.56;41.65
41218;BME280;26950;50.960;7.138;2023-07-13T01:51:28;100537.56;;;22.60;41.43
41218;BME280;26950;50.960;7.138;2023-07-13T01:53:54;100536.25;;;22.78;41.10
41218;BME280;26950;50.960;7.138;2023-07-13T01:56:22;100537.47;;;23.37;40.06
41218;BME280;26950;50.960;7.138;2023-07-13T01:58:49;100542.03;;;22.59;41.19
41218;BME280;26950;50.960;7.138;2023-07-13T02:01:15;100542.03;;;22.19;42.66
41218;BME280;26950;50.960;7.138;2023-07-13T02:03:42;100547.75;;;22.44;41.90
41218;BME280;26950;50.960;7.138;2023-07-13T02:06:08;100546.72;;;22.90;41.04
41218;BME280;26950;50.960;7.138;2023-07-13T02:08:37;100554.06;;;22.79;41.44
41218;BME280;26950;50.960;7.138;2023-07-13T02:11:03;100544.34;;;23.13;40.85
41218;BME280;26950;50.960;7.138;2023-07-13T02:13:31;100541.41;;;23.58;39.89
41218;BME280;26950;50.960;7.138;2023-07-13T02:15:58;100543.38;;;23.52;39.92
41218;BME280;26950;50.960;7.138;2023-07-13T02:18:24;100544.56;;;23.04;40.87
41218;BME280;26950;50.960;7.138;2023-07-13T02:20:51;100557.53;;;22.45;41.88
41218;BME280;26950;50.960;7.138;2023-07-13T02:23:17;100544.41;;;22.33;42.79
41218;BME280;26950;50.960;7.138;2023-07-13T02:25:44;100549.63;;;22.78;41.55
41218;BME280;26950;50.960;7.138;2023-07-13T02:28:11;100546.34;;;22.26;42.98
41218;BME280;26950;50.960;7.138;2023-07-13T02:30:39;100544.88;;;22.52;42.37
41218;BME280;26950;50.960;7.138;2023-07-13T02:33:06;100546.59;;;22.54;42.25
41218;BME280;26950;50.960;7.138;2023-07-13T02:35:32;100543.41;;;22.39;42.10
41218;BME280;26950;50.960;7.138;2023-07-13T02:37:59;100543.75;;;22.22;42.56
41218;BME280;26950;50.960;7.138;2023-07-13T02:40:25;100548.50;;;21.60;44.30
41218;BME280;26950;50.960;7.138;2023-07-13T02:42:52;100545.31;;;21.89;43.51
41218;BME280;26950;50.960;7.138;2023-07-13T02:45:18;100555.41;;;22.18;43.46
41218;BME280;26950;50.960;7.138;2023-07-13T02:47:46;100546.34;;;21.81;43.99
41218;BME280;26950;50.960;7.138;2023-07-13T02:50:13;100544.19;;;22.00;43.63
41218;BME280;26950;50.960;7.138;2023-07-13T02:52:39;100541.00;;;22.25;43.21
41218;BME280;26950;50.960;7.138;2023-07-13T02:55:06;100549.31;;;22.13;43.33
41218;BME280;26950;50.960;7.138;2023-07-13T02:57:33;100547.38;;;22.59;42.56
41218;BME280;26950;50.960;7.138;2023-07-13T02:59:59;100554.00;;;21.52;44.67
41218;BME280;26950;50.960;7.138;2023-07-13T03:02:26;100546.97;;;21.94;44.02
41218;BME280;26950;50.960;7.138;2023-07-13T03:04:55;100563.16;;;21.85;43.91
41218;BME280;26950;50.960;7.138;2023-07-13T03:07:21;100555.72;;;22.02;43.45
41218;BME280;26950;50.960;7.138;2023-07-13T03:09:48;100563.16;;;21.85;44.04
41218;BME280;26950;50.960;7.138;2023-07-13T03:12:15;100566.94;;;21.73;44.41
41218;BME280;26950;50.960;7.138;2023-07-13T03:14:41;100561.38;;;21.38;45.64
41218;BME280;26950;50.960;7.138;2023-07-13T03:17:08;100558.75;;;22.29;43.42
41218;BME280;26950;50.960;7.138;2023-07-13T03:19:34;100554.22;;;21.88;44.45
41218;BME280;26950;50.960;7.138;2023-07-13T03:22:02;100567.94;;;21.68;44.74
41218;BME280;26950;50.960;7.138;2023-07-13T03:24:29;100569.00;;;22.49;43.16
41218;BME280;26950;50.960;7.138;2023-07-13T03:26:55;100578.88;;;22.88;42.32
41218;BME280;26950;50.960;7.138;2023-07-13T03:29:22;100568.06;;;22.92;42.20
41218;BME280;26950;50.960;7.138;2023-07-13T03:31:48;100571.56;;;22.12;43.96
41218;BME280;26950;50.960;7.138;2023-07-13T03:34:15;100574.78;;;22.29;43.59
41218;BME280;26950;50.960;7.138;2023-07-13T03:36:41;100585.69;;;21.19;46.08
41218;BME280;26950;50.960;7.138;2023-07-13T03:39:09;100578.94;;;21.49;45.67
41218;BME280;26950;50.960;7.138;2023-07-13T03:41:36;100589.09;;;20.70;47.40
41218;BME280;26950;50.960;7.138;2023-07-13T03:44:03;100596.34;;;21.19;46.88
41218;BME280;26950;50.960;7.138;2023-07-13T03:46:30;100600.66;;;21.30;46.28
41218;BME280;26950;50.960;7.138;2023-07-13T03:48:56;100604.81;;;21.47;45.42
41218;BME280;26950;50.960;7.138;2023-07-13T03:51:23;100591.56;;;21.41;45.61
41218;BME280;26950;50.960;7.138;2023-07-13T03:53:50;100599.84;;;21.77;44.38
41218;BME280;26950;50.960;7.138;2023-07-13T03:56:18;100597.50;;;21.59;44.74
41218;BME280;26950;50.960;7.138;2023-07-13T03:58:46;100605.09;;;21.81;44.48
41218;BME280;26950;50.960;7.138;2023-07-13T04:01:14;100611.25;;;22.33;43.36
41218;BME280;26950;50.960;7.138;2023-07-13T04:03:42;100600.94;;;21.65;44.93
41218;BME280;26950;50.960;7.138;2023-07-13T04:06:14;100602.88;;;21.55;45.11
41218;BME280;26950;50.960;7.138;2023-07-13T04:08:47;100608.53;;;21.87;44.37
41218;BME280;26950;50.960;7.138;2023-07-13T04:11:15;100606.09;;;21.76;44.51
41218;BME280;26950;50.960;7.138;2023-07-13T04:13:43;100605.31;;;21.69;44.97
41218;BME280;26950;50.960;7.138;2023-07-13T04:16:09;100611.53;;;21.70;45.08
41218;BME280;26950;50.960;7.138;2023-07-13T04:18:36;100611.78;;;22.04;44.41
41218;BME280;26950;50.960;7.138;2023-07-13T04:21:03;100613.09;;;22.29;43.61
41218;BME280;26950;50.960;7.138;2023-07-13T04:23:29;100612.34;;;21.73;44.90
41218;BME280;26950;50.960;7.138;2023-07-13T04:25:56;100605.38;;;21.66;45.07
41218;BME280;26950;50.960;7.138;2023-07-13T04:28:23;100614.47;;;22.04;44.39
41218;BME280;26950;50.960;7.138;2023-07-13T04:30:51;100603.72;;;22.07;44.65
41218;BME280;26950;50.960;7.138;2023-07-13T04:33:18;100599.13;;;22.58;43.43
41218;BME280;26950;50.960;7.138;2023-07-13T04:35:47;100610.81;;;21.60;44.98
41218;BME280;26950;50.960;7.138;2023-07-13T04:38:14;100606.09;;;21.76;45.12
41218;BME280;26950;50.960;7.138;2023-07-13T04:40:42;100604.75;;;21.98;44.47
41218;BME280;26950;50.960;7.138;2023-07-13T04:43:08;100606.50;;;22.47;43.27
41218;BME280;26950;50.960;7.138;2023-07-13T04:45:35;100612.03;;;21.92;44.53
41218;BME280;26950;50.960;7.138;2023-07-13T04:48:04;100614.16;;;22.21;43.87
41218;BME280;26950;50.960;7.138;2023-07-13T04:50:31;100610.34;;;22.34;43.60
41218;BME280;26950;50.960;7.138;2023-07-13T04:52:57;100626.13;;;22.46;43.25
41218;BME280;26950;50.960;7.138;2023-07-13T04:55:24;100619.09;;;22.41;43.79
41218;BME280;26950;50.960;7.138;2023-07-13T04:57:51;100622.88;;;22.72;43.04
41218;BME280;26950;50.960;7.138;2023-07-13T05:00:17;100615.94;;;22.22;43.96
41218;BME280;26950;50.960;7.138;2023-07-13T05:02:45;100623.09;;;22.63;43.59
41218;BME280;26950;50.960;7.138;2023-07-13T05:05:13;100619.31;;;23.13;42.47
41218;BME280;26950;50.960;7.138;2023-07-13T05:07:40;100615.91;;;23.05;42.84
41218;BME280;26950;50.960;7.138;2023-07-13T05:10:07;100618.59;;;23.05;42.44
41218;BME280;26950;50.960;7.138;2023-07-13T05:12:34;100624.13;;;22.57;42.86
41218;BME280;26950;50.960;7.138;2023-07-13T05:15:01;100626.75;;;22.59;43.34
41218;BME280;26950;50.960;7.138;2023-07-13T05:17:28;100617.50;;;22.74;42.90
41218;BME280;26950;50.960;7.138;2023-07-13T05:19:54;100630.34;;;22.58;43.01
41218;BME280;26950;50.960;7.138;2023-07-13T05:22:22;100627.91;;;22.87;42.81
41218;BME280;26950;50.960;7.138;2023-07-13T05:24:49;100623.16;;;23.00;42.60
41218;BME280;26950;50.960;7.138;2023-07-13T05:27:15;100629.63;;;22.92;42.80
41218;BME280;26950;50.960;7.138;2023-07-13T05:29:42;100624.19;;;22.53;43.69
41218;BME280;26950;50.960;7.138;2023-07-13T05:32:09;100631.44;;;23.28;42.28
41218;BME280;26950;50.960;7.138;2023-07-13T05:34:35;100632.00;;;23.04;42.89
41218;BME280;26950;50.960;7.138;2023-07-13T05:37:02;100637.03;;;23.18;42.53
41218;BME280;26950;50.960;7.138;2023-07-13T05:39:30;100634.19;;;23.61;41.68
41218;BME280;26950;50.960;7.138;2023-07-13T05:41:57;100638.75;;;23.57;42.08
41218;BME280;26950;50.960;7.138;2023-07-13T05:44:23;100637.72;;;23.64;42.09
41218;BME280;26950;50.960;7.138;2023-07-13T05:46:50;100636.63;;;22.97;43.27
41218;BME280;26950;50.960;7.138;2023-07-13T05:49:16;100644.03;;;23.23;43.12
41218;BME280;26950;50.960;7.138;2023-07-13T05:51:43;100645.03;;;23.19;43.03
41218;BME280;26950;50.960;7.138;2023-07-13T05:54:09;100638.81;;;23.54;42.54
41218;BME280;26950;50.960;7.138;2023-07-13T05:56:37;100632.78;;;23.46;42.90
41218;BME280;26950;50.960;7.138;2023-07-13T05:59:04;100650.09;;;23.31;43.14
41218;BME280;26950;50.960;7.138;2023-07-13T06:01:31;100641.78;;;23.79;42.58
41218;BME280;26950;50.960;7.138;2023-07-13T06:03:57;100652.66;;;23.73;42.69
41218;BME280;26950;50.960;7.138;2023-07-13T06:06:24;100643.00;;;24.00;42.37
41218;BME280;26950;50.960;7.138;2023-07-13T06:08:50;100650.56;;;24.18;41.91
41218;BME280;26950;50.960;7.138;2023-07-13T06:11:18;100647.53;;;23.98;42.56
41218;BME280;26950;50.960;7.138;2023-07-13T06:13:47;100662.00;;;23.55;42.96
41218;BME280;26950;50.960;7.138;2023-07-13T06:16:14;100665.38;;;22.89;44.47
41218;BME280;26950;50.960;7.138;2023-07-13T06:18:41;100663.47;;;23.70;43.03
41218;BME280;26950;50.960;7.138;2023-07-13T06:21:09;100660.34;;;23.51;43.37
41218;BME280;26950;50.960;7.138;2023-07-13T06:23:36;100662.47;;;23.74;43.09
41218;BME280;26950;50.960;7.138;2023-07-13T06:26:03;100664.22;;;23.38;43.64
41218;BME280;26950;50.960;7.138;2023-07-13T06:28:29;100665.16;;;24.08;42.54
41218;BME280;26950;50.960;7.138;2023-07-13T06:30:58;100676.09;;;24.32;42.06
41218;BME280;26950;50.960;7.138;2023-07-13T06:33:25;100675.66;;;24.16;42.10
41218;BME280;26950;50.960;7.138;2023-07-13T06:35:52;100673.31;;;24.04;42.31
41218;BME280;26950;50.960;7.138;2023-07-13T06:38:20;100676.72;;;23.75;43.18
41218;BME280;26950;50.960;7.138;2023-07-13T06:40:46;100674.38;;;23.61;43.57
41218;BME280;26950;50.960;7.138;2023-07-13T06:43:13;100679.59;;;22.91;45.16
41218;BME280;26950;50.960;7.138;2023-07-13T06:45:42;100679.72;;;23.24;44.26
41218;BME280;26950;50.960;7.138;2023-07-13T06:48:10;100678.88;;;23.94;42.94
41218;BME280;26950;50.960;7.138;2023-07-13T06:50:36;100682.38;;;23.98;43.04
41218;BME280;26950;50.960;7.138;2023-07-13T06:53:03;100668.66;;;24.43;42.13
41218;BME280;26950;50.960;7.138;2023-07-13T06:55:29;100687.56;;;24.40;42.41
41218;BME280;26950;50.960;7.138;2023-07-13T06:57:56;100685.41;;;24.51;42.29
41218;BME280;26950;50.960;7.138;2023-07-13T07:00:23;100681.84;;;24.51;41.92
41218;BME280;26950;50.960;7.138;2023-07-13T07:02:50;100685.88;;;24.36;42.35
41218;BME280;26950;50.960;7.138;2023-07-13T07:05:18;100691.41;;;23.94;42.93
41218;BME280;26950;50.960;7.138;2023-07-13T07:07:47;100692.69;;;24.13;42.68
41218;BME280;26950;50.960;7.138;2023-07-13T07:10:14;100687.75;;;24.31;42.19
41218;BME280;26950;50.960;7.138;2023-07-13T07:12:40;100685.25;;;24.25;42.42
41218;BME280;26950;50.960;7.138;2023-07-13T07:15:07;100694.53;;;24.11;43.48
41218;BME280;26950;50.960;7.138;2023-07-13T07:17:34;100695.84;;;24.62;42.31
41218;BME280;26950;50.960;7.138;2023-07-13T07:20:00;100696.94;;;24.86;41.64
41218;BME280;26950;50.960;7.138;2023-07-13T07:22:28;100690.03;;;25.36;40.88
41218;BME280;26950;50.960;7.138;2023-07-13T07:24:55;100688.19;;;25.38;40.88
41218;BME280;26950;50.960;7.138;2023-07-13T07:27:22;100693.69;;;24.74;41.85
41218;BME280;26950;50.960;7.138;2023-07-13T07:29:49;100690.91;;;24.14;43.13
41218;BME280;26950;50.960;7.138;2023-07-13T07:32:15;100689.13;;;25.08;41.69
41218;BME280;26950;50.960;7.138;2023-07-13T07:34:42;100697.41;;;25.58;40.45
41218;BME280;26950;50.960;7.138;2023-07-13T07:37:11;100702.16;;;25.49;40.45
41218;BME280;26950;50.960;7.138;2023-07-13T07:39:39;100699.22;;;25.29;40.61
41218;BME280;26950;50.960;7.138;2023-07-13T07:42:06;100691.19;;;26.35;38.89
41218;BME280;26950;50.960;7.138;2023-07-13T07:44:33;100697.88;;;26.23;38.91
41218;BME280;26950;50.960;7.138;2023-07-13T07:47:00;100688.03;;;25.71;39.51
41218;BME280;26950;50.960;7.138;2023-07-13T07:49:27;100693.91;;;25.84;39.58
41218;BME280;26950;50.960;7.138;2023-07-13T07:51:54;100701.91;;;25.57;39.82
41218;BME280;26950;50.960;7.138;2023-07-13T07:54:20;100689.00;;;25.95;39.87
41218;BME280;26950;50.960;7.138;2023-07-13T07:56:48;100709.28;;;26.05;39.36
41218;BME280;26950;50.960;7.138;2023-07-13T07:59:15;100689.09;;;26.68;38.53
41218;BME280;26950;50.960;7.138;2023-07-13T08:01:41;100685.94;;;27.04;37.55
41218;BME280;26950;50.960;7.138;2023-07-13T08:04:10;100684.53;;;26.94;37.52
41218;BME280;26950;50.960;7.138;2023-07-13T08:06:37;100685.47;;;26.93;37.68
41218;BME280;26950;50.960;7.138;2023-07-13T08:09:03;100691.06;;;26.63;37.93
41218;BME280;26950;50.960;7.138;2023-07-13T08:11:30;100683.53;;;26.73;37.73
41218;BME280;26950;50.960;7.138;2023-07-13T08:13:58;100696.53;;;25.57;39.65
41218;BME280;26950;50.960;7.138;2023-07-13T08:16:26;100689.59;;;25.50;40.52
41218;BME280;26950;50.960;7.138;2023-07-13T08:18:52;100684.44;;;26.23;39.17
41218;BME280;26950;50.960;7.138;2023-07-13T08:21:19;100697.69;;;25.76;39.77
41218;BME280;26950;50.960;7.138;2023-07-13T08:23:46;100692.38;;;25.19;40.84
41218;BME280;26950;50.960;7.138;2023-07-13T08:26:13;100690.75;;;25.69;40.07
41218;BME280;26950;50.960;7.138;2023-07-13T08:28:40;100682.72;;;26.21;39.19
41218;BME280;26950;50.960;7.138;2023-07-13T08:31:09;100685.91;;;26.32;38.79
41218;BME280;26950;50.960;7.138;2023-07-13T08:33:36;100668.91;;;26.80;38.21
41218;BME280;26950;50.960;7.138;2023-07-13T08:36:04;100679.94;;;26.49;38.78
41218;BME280;26950;50.960;7.138;2023-07-13T08:38:30;100677.38;;;26.69;38.15
41218;BME280;26950;50.960;7.138;2023-07-13T08:40:57;100678.91;;;26.76;38.01
41218;BME280;26950;50.960;7.138;2023-07-13T08:43:26;100675.91;;;26.35;38.33
41218;BME280;26950;50.960;7.138;2023-07-13T08:45:58;100670.41;;;25.89;39.50
41218;BME280;26950;50.960;7.138;2023-07-13T08:48:31;100680.19;;;25.91;39.93
41218;BME280;26950;50.960;7.138;2023-07-13T08:51:02;100675.91;;;26.35;39.70
41218;BME280;26950;50.960;7.138;2023-07-13T08:53:34;100676.66;;;26.64;38.74
41218;BME280;26950;50.960;7.138;2023-07-13T08:56:03;100674.97;;;25.87;39.34
41218;BME280;26950;50.960;7.138;2023-07-13T08:58:32;100675.78;;;26.14;39.34
41218;BME280;26950;50.960;7.138;2023-07-13T09:01:08;100676.53;;;26.19;39.17
41218;BME280;26950;50.960;7.138;2023-07-13T09:03:42;100670.09;;;26.23;38.86
41218;BME280;26950;50.960;7.138;2023-07-13T09:06:14;100669.06;;;26.99;38.09
41218;BME280;26950;50.960;7.138;2023-07-13T09:08:53;100677.50;;;26.66;38.25
41218;BME280;26950;50.960;7.138;2023-07-13T09:11:36;100691.00;;;25.62;39.81
41218;BME280;26950;50.960;7.138;2023-07-13T09:14:33;100700.19;;;26.09;38.92
41218;BME280;26950;50.960;7.138;2023-07-13T09:17:03;100684.06;;;26.34;38.88
41218;BME280;26950;50.960;7.138;2023-07-13T09:19:33;100684.72;;;26.66;38.25
41218;BME280;26950;50.960;7.138;2023-07-13T09:22:02;100686.38;;;26.45;38.36
41218;BME280;26950;50.960;7.138;2023-07-13T09:24:36;100687.22;;;26.70;37.38
41218;BME280;26950;50.960;7.138;2023-07-13T09:27:09;100689.06;;;26.45;37.94
41218;BME280;26950;50.960;7.138;2023-07-13T09:29:41;100695.84;;;26.80;37.12
41218;BME280;26950;50.960;7.138;2023-07-13T09:32:13;100696.22;;;26.19;37.93
41218;BME280;26950;50.960;7.138;2023-07-13T09:34:42;100695.47;;;25.89;38.80
41218;BME280;26950;50.960;7.138;2023-07-13T09:37:09;100684.16;;;26.56;38.46
41218;BME280;26950;50.960;7.138;2023-07-13T09:39:36;100693.06;;;26.58;38.63
41218;BME280;26950;50.960;7.138;2023-07-13T09:42:07;100698.44;;;27.06;36.81
41218;BME280;26950;50.960;7.138;2023-07-13T09:44:51;100692.31;;;27.47;36.17
41218;BME280;26950;50.960;7.138;2023-07-13T09:47:20;100688.69;;;26.79;36.92
41218;BME280;26950;50.960;7.138;2023-07-13T09:49:56;100698.22;;;26.64;37.42
41218;BME280;26950;50.960;7.138;2023-07-13T09:52:24;100696.81;;;27.01;36.80
41218;BME280;26950;50.960;7.138;2023-07-13T09:54:52;100697.00;;;26.73;36.33
41218;BME280;26950;50.960;7.138;2023-07-13T09:57:25;100703.25;;;26.73;36.00
41218;BME280;26950;50.960;7.138;2023-07-13T09:59:53;100698.97;;;27.38;35.70
41218;BME280;26950;50.960;7.138;2023-07-13T10:02:26;100694.97;;;27.70;35.60
41218;BME280;26950;50.960;7.138;2023-07-13T10:05:00;100691.56;;;27.87;35.59
41218;BME280;26950;50.960;7.138;2023-07-13T10:07:29;100684.34;;;28.28;35.34
41218;BME280;26950;50.960;7.138;2023-07-13T10:09:56;100690.13;;;27.78;35.95
41218;BME280;26950;50.960;7.138;2023-07-13T10:12:24;100692.19;;;27.93;35.67
41218;BME280;26950;50.960;7.138;2023-07-13T10:14:52;100695.94;;;27.46;35.19
41218;BME280;26950;50.960;7.138;2023-07-13T10:17:26;100687.69;;;27.05;36.19
41218;BME280;26950;50.960;7.138;2023-07-13T10:19:58;100693.75;;;27.33;35.46
41218;BME280;26950;50.960;7.138;2023-07-13T10:22:29;100698.41;;;27.30;36.34
41218;BME280;26950;50.960;7.138;2023-07-13T10:24:59;100682.47;;;26.77;35.78
41218;BME280;26950;50.960;7.138;2023-07-13T10:27:31;100693.22;;;27.47;35.44
41218;BME280;26950;50.960;7.138;2023-07-13T10:30:02;100687.34;;;27.58;35.40
41218;BME280;26950;50.960;7.138;2023-07-13T10:32:34;100677.72;;;26.83;34.98
41218;BME280;26950;50.960;7.138;2023-07-13T10:35:01;100703.78;;;27.52;34.42
41218;BME280;26950;50.960;7.138;2023-07-13T10:37:39;100694.47;;;27.15;34.73
41218;BME280;26950;50.960;7.138;2023-07-13T10:40:13;100701.97;;;27.30;33.74
41218;BME280;26950;50.960;7.138;2023-07-13T10:42:44;100702.63;;;28.01;33.31
41218;BME280;26950;50.960;7.138;2023-07-13T10:45:14;100713.22;;;27.85;33.46
41218;BME280;26950;50.960;7.138;2023-07-13T10:47:41;100706.78;;;28.30;33.06
41218;BME280;26950;50.960;7.138;2023-07-13T10:50:16;100708.81;;;27.83;33.02
41218;BME280;26950;50.960;7.138;2023-07-13T10:52:46;100710.41;;;27.65;33.24
41218;BME280;26950;50.960;7.138;2023-07-13T10:55:33;100701.31;;;27.69;33.91
41218;BME280;26950;50.960;7.138;2023-07-13T10:58:01;100703.88;;;28.55;33.01
41218;BME280;26950;50.960;7.138;2023-07-13T11:00:31;100700.19;;;28.76;32.68
41218;BME280;26950;50.960;7.138;2023-07-13T11:03:01;100703.94;;;28.74;33.08
41218;BME280;26950;50.960;7.138;2023-07-13T11:05:32;100704.13;;;28.69;32.49
41218;BME280;26950;50.960;7.138;2023-07-13T11:08:11;100702.94;;;29.14;31.90
41218;BME280;26950;50.960;7.138;2023-07-13T11:10:47;100697.03;;;29.06;32.31
41218;BME280;26950;50.960;7.138;2023-07-13T11:13:37;100700.47;;;28.70;32.35
41218;BME280;26950;50.960;7.138;2023-07-13T11:16:34;100705.38;;;28.81;32.56
41218;BME280;26950;50.960;7.138;2023-07-13T11:19:38;100696.97;;;29.08;32.45
41218;BME280;26950;50.960;7.138;2023-07-13T11:22:16;100706.44;;;29.54;31.91
41218;BME280;26950;50.960;7.138;2023-07-13T11:24:57;100711.81;;;29.18;32.14
41218;BME280;26950;50.960;7.138;2023-07-13T11:27:40;100707.25;;;29.56;31.66
41218;BME280;26950;50.960;7.138;2023-07-13T11:30:21;100699.53;;;28.92;31.56
41218;BME280;26950;50.960;7.138;2023-07-13T11:33:03;100707.53;;;28.54;33.29
41218;BME280;26950;50.960;7.138;2023-07-13T11:35:35;100705.28;;;28.23;33.41
41218;BME280;26950;50.960;7.138;2023-07-13T11:38:12;100713.66;;;28.17;33.48
41218;BME280;26950;50.960;7.138;2023-07-13T11:40:41;100718.66;;;28.46;33.67
41218;BME280;26950;50.960;7.138;2023-07-13T11:43:12;100704.88;;;28.53;33.71
41218;BME280;26950;50.960;7.138;2023-07-13T11:45:39;100710.91;;;28.78;33.45
41218;BME280;26950;50.960;7.138;2023-07-13T11:48:20;100698.53;;;28.54;33.58
41218;BME280;26950;50.960;7.138;2023-07-13T11:50:58;100708.94;;;29.02;33.33
41218;BME280;26950;50.960;7.138;2023-07-13T11:53:29;100710.72;;;28.83;33.55
41218;BME280;26950;50.960;7.138;2023-07-13T11:55:59;100720.53;;;28.24;34.50
41218;BME280;26950;50.960;7.138;2023-07-13T11:58:27;100711.00;;;28.37;33.56
41218;BME280;26950;50.960;7.138;2023-07-13T12:00:55;100709.66;;;28.47;33.78
41218;BME280;26950;50.960;7.138;2023-07-13T12:03:26;100696.78;;;28.73;33.54
41218;BME280;26950;50.960;7.138;2023-07-13T12:05:57;100702.81;;;28.98;33.24
41218;BME280;26950;50.960;7.138;2023-07-13T12:08:26;100705.22;;;28.84;33.85
41218;BME280;26950;50.960;7.138;2023-07-13T12:10:58;100704.94;;;28.90;33.56
41218;BME280;26950;50.960;7.138;2023-07-13T12:13:27;100706.94;;;28.47;33.92
41218;BME280;26950;50.960;7.138;2023-07-13T12:15:54;100695.84;;;28.13;33.77
41218;BME280;26950;50.960;7.138;2023-07-13T12:18:23;100703.41;;;27.61;34.26
41218;BME280;26950;50.960;7.138;2023-07-13T12:20:57;100701.09;;;27.30;34.60
41218;BME280;26950;50.960;7.138;2023-07-13T12:23:28;100702.19;;;27.01;35.49
41218;BME280;26950;50.960;7.138;2023-07-13T12:25:55;100710.09;;;27.74;34.01
41218;BME280;26950;50.960;7.138;2023-07-13T12:28:32;100707.69;;;28.09;33.56
41218;BME280;26950;50.960;7.138;2023-07-13T12:31:01;100720.44;;;27.39;34.92
41218;BME280;26950;50.960;7.138;2023-07-13T12:33:29;100719.81;;;27.11;34.75
41218;BME280;26950;50.960;7.138;2023-07-13T12:36:00;100713.09;;;26.98;34.96
41218;BME280;26950;50.960;7.138;2023-07-13T12:38:30;100707.34;;;26.83;35.27
41218;BME280;26950;50.960;7.138;2023-07-13T12:40:57;100708.94;;;27.36;34.04
41218;BME280;26950;50.960;7.138;2023-07-13T12:43:25;100715.50;;;27.29;33.44
41218;BME280;26950;50.960;7.138;2023-07-13T12:45:57;100721.13;;;26.99;34.29
41218;BME280;26950;50.960;7.138;2023-07-13T12:48:23;100713.91;;;27.00;33.75
41218;BME280;26950;50.960;7.138;2023-07-13T12:50:53;100723.03;;;26.72;34.04
41218;BME280;26950;50.960;7.138;2023-07-13T12:53:23;100723.66;;;27.04;33.73
41218;BME280;26950;50.960;7.138;2023-07-13T12:55:53;100713.06;;;27.23;33.27
41218;BME280;26950;50.960;7.138;2023-07-13T12:58:24;100708.00;;;27.13;33.20